Time;durP1;ratioP1;P1;durP2;ratioP2;P2;SDS_P1;SDS_P2;PMS_P1;PMS_P2;Temp;Humidity;BMP_temperature;BMP_pressure;BME280_temperature;BME280_humidity;BME280_pressure;Samples;Min_cycle;Max_cycle;Signal;HPM_P1;HPM_P2
2022/07/15 00:00:06;;;;;;;2.30;1.48;;;18.80;1.40;;;20.39;96.37;95640.36;647289;216;32480;-75
2022/07/15 00:02:48;;;;;;;1.60;1.50;;;18.80;1.40;;;20.39;96.43;95645.95;646546;212;31566;-75
2022/07/15 00:05:29;;;;;;;3.50;1.33;;;18.70;1.40;;;20.50;95.61;95647.70;646403;216;31586;-75
2022/07/15 00:08:11;;;;;;;1.87;1.67;;;18.80;1.40;;;20.50;95.90;95643.36;646713;216;31521;-75
2022/07/15 00:10:53;;;;;;;1.60;1.50;;;18.80;1.40;;;20.52;95.69;95653.64;619924;226;31885;-75
2022/07/15 00:13:34;;;;;;;2.40;1.40;;;18.80;1.40;;;20.65;94.23;95645.02;646973;216;32008;-74
2022/07/15 00:16:16;;;;;;;1.90;1.60;;;19.00;1.40;;;20.67;95.48;95641.13;646053;212;31573;-75
2022/07/15 00:18:58;;;;;;;1.52;1.30;;;19.00;1.40;;;20.62;96.15;95632.36;647030;216;31837;-75
2022/07/15 00:21:40;;;;;;;3.05;1.90;;;19.00;1.40;;;20.65;97.24;95651.55;647330;216;31837;-75
2022/07/15 00:24:21;;;;;;;3.20;1.80;;;19.00;1.40;;;20.63;100.00;95663.02;646289;216;31569;-74
2022/07/15 00:27:03;;;;;;;3.58;2.05;;;19.00;1.40;;;19.92;100.00;95647.98;646590;216;31640;-73
2022/07/15 00:29:45;;;;;;;1.87;1.67;;;18.20;1.40;;;19.28;100.00;95635.92;647983;216;31610;-74
2022/07/15 00:35:51;;;;;;;2.80;1.70;;;17.10;1.40;;;18.90;100.00;95616.22;646497;212;32872;-75
2022/07/15 00:38:33;;;;;;;5.15;2.17;;;17.00;1.40;;;18.81;100.00;95619.13;647591;216;31980;-75
2022/07/15 00:41:14;;;;;;;2.83;1.50;;;16.90;1.40;;;18.75;100.00;95642.32;645593;212;31621;-75
2022/07/15 00:43:57;;;;;;;2.35;2.10;;;16.90;1.40;;;18.36;100.00;95654.48;647891;216;31502;-73
2022/07/15 00:46:38;;;;;;;2.60;1.40;;;16.60;1.40;;;18.14;100.00;95653.27;646871;216;31519;-74
2022/07/15 00:49:22;;;;;;;2.42;1.55;;;16.40;1.40;;;17.76;100.00;95653.74;646965;216;31558;-75
2022/07/15 00:52:05;;;;;;;1.90;1.50;;;16.20;1.40;;;17.66;100.00;95639.55;647335;212;31521;-74
2022/07/15 00:54:46;;;;;;;3.22;2.30;;;16.10;1.40;;;17.74;100.00;95637.11;647216;216;31579;-73
2022/07/15 00:57:28;;;;;;;2.67;1.85;;;16.10;1.40;;;17.76;100.00;95632.52;645387;215;31586;-73
2022/07/15 01:00:11;;;;;;;2.40;1.00;;;16.10;1.40;;;17.67;100.00;95633.20;646802;212;31532;-73
2022/07/15 01:02:53;;;;;;;2.60;2.00;;;16.20;1.40;;;17.68;100.00;95638.72;646453;212;31600;-73
2022/07/15 01:05:34;;;;;;;2.00;1.80;;;16.10;1.40;;;17.48;100.00;95628.36;646883;212;31507;-74
2022/07/15 01:08:18;;;;;;;2.12;1.75;;;16.00;1.40;;;17.38;100.00;95630.70;645212;216;31828;-74
2022/07/15 01:11:00;;;;;;;4.80;1.92;;;15.90;1.40;;;17.32;100.00;95624.90;646836;212;32050;-73
2022/07/15 01:13:42;;;;;;;1.83;1.73;;;15.80;1.40;;;17.24;100.00;95629.98;646628;216;31743;-73
2022/07/15 01:16:23;;;;;;;1.90;1.40;;;15.80;1.40;;;17.36;100.00;95648.08;646831;212;32180;-73
2022/07/15 01:19:05;;;;;;;1.77;1.67;;;15.80;1.40;;;17.26;100.00;95654.34;647059;216;31685;-74
2022/07/15 01:21:47;;;;;;;2.92;1.52;;;15.80;1.40;;;17.16;100.00;95651.78;646539;212;31625;-74
2022/07/15 01:24:28;;;;;;;1.50;1.40;;;15.70;1.40;;;17.06;100.00;95628.59;646619;216;31687;-74
2022/07/15 01:27:10;;;;;;;1.55;1.25;;;15.70;1.40;;;17.09;100.00;95626.98;645770;212;31562;-74
2022/07/15 01:29:52;;;;;;;1.87;1.67;;;15.80;1.40;;;17.24;100.00;95630.81;646744;216;31572;-74
2022/07/15 01:32:34;;;;;;;4.07;1.75;;;15.80;1.40;;;17.48;100.00;95631.47;646913;216;31506;-74
2022/07/15 01:35:51;;;;;;;3.10;1.60;;;15.90;1.40;;;17.31;100.00;95635.63;647148;216;32185;-74
2022/07/15 01:38:33;;;;;;;1.55;1.42;;;15.90;1.40;;;17.27;100.00;95628.61;647488;212;32120;-74
2022/07/15 01:41:15;;;;;;;2.47;2.08;;;15.90;1.40;;;17.26;100.00;95632.55;646575;216;32057;-74
2022/07/15 01:43:56;;;;;;;1.77;1.50;;;15.80;1.40;;;17.26;100.00;95631.77;645916;216;31617;-73
2022/07/15 01:46:38;;;;;;;1.40;1.30;;;15.80;1.40;;;17.15;100.00;95634.70;645847;216;31528;-74
2022/07/15 01:49:22;;;;;;;3.72;2.30;;;15.70;1.40;;;17.24;100.00;95634.34;646647;216;31510;-73
2022/07/15 01:52:04;;;;;;;1.42;1.33;;;15.80;1.40;;;17.21;100.00;95634.31;646077;216;31557;-75
2022/07/15 01:54:46;;;;;;;3.00;2.50;;;15.70;1.40;;;17.04;100.00;95622.66;618737;222;31899;-74
2022/07/15 01:57:27;;;;;;;2.50;1.70;;;15.40;1.40;;;16.84;100.00;95622.02;646104;216;31555;-74
2022/07/15 02:00:12;;;;;;;3.90;2.40;;;15.40;1.40;;;16.88;100.00;95624.25;646251;216;31518;-74
2022/07/15 02:02:52;;;;;;;4.78;1.80;;;15.40;1.40;;;16.82;100.00;95625.00;647163;216;32132;-74
2022/07/15 02:05:34;;;;;;;2.35;1.60;;;15.30;1.40;;;16.83;100.00;95622.62;647365;212;31546;-74
2022/07/15 02:08:16;;;;;;;1.55;1.45;;;15.30;1.40;;;16.82;100.00;95623.39;646004;216;31520;-74
2022/07/15 02:10:57;;;;;;;4.10;1.27;;;15.30;1.40;;;16.83;100.00;95623.56;646873;216;31543;-74
2022/07/15 02:13:39;;;;;;;2.23;2.03;;;15.30;1.40;;;16.70;100.00;95622.38;646152;212;31536;-73
2022/07/15 02:16:21;;;;;;;1.85;1.73;;;15.30;1.40;;;16.59;100.00;95624.98;646648;216;31561;-74
2022/07/15 02:19:03;;;;;;;1.40;1.10;;;15.20;1.40;;;16.62;100.00;95620.66;646697;216;31765;-74
2022/07/15 02:21:47;;;;;;;8.02;1.40;;;15.10;1.40;;;16.56;100.00;95621.09;647011;213;31564;-73
2022/07/15 02:24:29;;;;;;;2.40;1.85;;;15.00;1.40;;;16.51;100.00;95627.08;647824;216;31547;-73
2022/07/15 02:27:11;;;;;;;2.40;1.30;;;15.00;1.40;;;16.52;100.00;95630.50;646968;216;32161;-73
2022/07/15 02:29:52;;;;;;;3.08;1.58;;;14.90;1.40;;;16.58;100.00;95624.48;644308;216;31921;-73
2022/07/15 02:32:34;;;;;;;3.28;1.52;;;15.00;1.40;;;16.47;100.00;95614.27;647264;212;32220;-73
2022/07/15 02:35:51;;;;;;;2.08;1.60;;;14.90;1.40;;;16.44;100.00;95623.14;647232;212;32574;-73
2022/07/15 02:38:35;;;;;;;2.05;1.30;;;15.00;1.40;;;16.55;100.00;95622.11;645759;216;31580;-73
2022/07/15 02:41:17;;;;;;;2.20;1.15;;;15.00;1.40;;;16.51;100.00;95623.47;646683;212;31482;-73
2022/07/15 02:46:07;;;;;;;2.78;2.00;;;14.90;1.40;;;16.28;100.00;95627.72;646772;216;32414;-73
2022/07/15 02:48:49;;;;;;;2.07;1.50;;;14.80;1.40;;;16.19;100.00;95627.61;647638;216;31606;-74
2022/07/15 02:51:30;;;;;;;2.28;2.00;;;14.80;1.40;;;16.12;100.00;95631.88;647327;216;31528;-73
2022/07/15 02:54:12;;;;;;;4.57;1.50;;;14.70;1.40;;;16.08;100.00;95640.36;636119;212;31677;-73
2022/07/15 02:56:57;;;;;;;2.20;2.00;;;14.70;1.40;;;16.10;100.00;95637.80;647671;212;31747;-73
2022/07/15 02:59:38;;;;;;;2.60;1.50;;;14.70;1.40;;;16.08;100.00;95632.56;618427;226;32249;-73
2022/07/15 03:02:20;;;;;;;1.77;1.65;;;14.60;1.40;;;16.09;100.00;95635.16;646091;216;31541;-73
2022/07/15 03:05:02;;;;;;;2.20;2.00;;;14.60;1.40;;;16.08;100.00;95638.50;646895;216;31637;-74
2022/07/15 03:07:43;;;;;;;3.20;1.60;;;14.60;1.40;;;16.20;100.00;95644.81;645374;216;31928;-73
2022/07/15 03:10:25;;;;;;;3.92;1.70;;;14.70;1.40;;;16.21;100.00;95642.20;647244;216;31503;-74
2022/07/15 03:13:10;;;;;;;1.50;1.30;;;14.60;1.40;;;16.10;100.00;95643.66;647603;216;31578;-73
2022/07/15 03:15:52;;;;;;;1.87;1.52;;;14.60;1.40;;;15.93;100.00;95644.22;647456;216;31906;-73
2022/07/15 03:18:33;;;;;;;4.28;1.48;;;14.30;1.40;;;15.80;100.00;95654.67;646777;216;31537;-73
2022/07/15 03:21:18;;;;;;;2.97;1.70;;;14.30;1.40;;;15.79;100.00;95649.98;646981;216;31588;-74
2022/07/15 03:24:00;;;;;;;4.12;1.62;;;14.30;1.40;;;15.75;100.00;95657.34;646614;216;31535;-74
2022/07/15 03:26:41;;;;;;;4.18;1.60;;;14.20;1.40;;;15.64;100.00;95659.89;646714;216;31500;-73
2022/07/15 03:29:28;;;;;;;5.50;1.60;;;14.10;1.40;;;15.56;100.00;95665.73;646247;212;32042;-73
2022/07/15 03:32:08;;;;;;;1.60;1.50;;;14.10;1.40;;;15.45;100.00;95664.28;645606;216;31609;-74
2022/07/15 03:35:50;;;;;;;4.10;1.20;;;13.90;1.40;;;15.45;100.00;95669.78;646514;216;32264;-73
2022/07/15 03:38:32;;;;;;;1.20;1.10;;;14.00;1.40;;;15.30;100.00;95670.69;646082;216;31694;-73
2022/07/15 03:41:15;;;;;;;2.50;1.50;;;13.90;1.40;;;15.21;100.00;95671.66;646897;216;32097;-73
2022/07/15 03:43:57;;;;;;;1.70;1.60;;;13.90;1.40;;;15.27;100.00;95677.27;646998;216;31812;-73
2022/07/15 03:46:38;;;;;;;1.05;0.98;;;13.90;1.40;;;15.19;100.00;95675.06;645820;216;31561;-73
2022/07/15 03:49:20;;;;;;;1.20;1.00;;;13.80;1.40;;;15.19;100.00;95672.11;618851;225;32089;-73
2022/07/15 03:52:02;;;;;;;1.67;0.82;;;13.90;1.40;;;15.30;100.00;95676.95;646820;216;31478;-73
2022/07/15 03:54:43;;;;;;;0.95;0.90;;;13.90;1.40;;;15.33;100.00;95675.29;646663;216;31495;-73
2022/07/15 03:57:26;;;;;;;1.00;0.90;;;14.00;1.40;;;15.35;100.00;95673.68;646250;216;31657;-73
2022/07/15 04:00:08;;;;;;;1.37;1.27;;;14.00;1.40;;;15.35;100.00;95672.05;646776;216;42505;-73
2022/07/15 04:02:53;;;;;;;2.85;1.20;;;14.00;1.40;;;15.37;100.00;95672.44;645630;216;31495;-73
2022/07/15 04:05:34;;;;;;;1.55;1.27;;;14.10;1.40;;;15.42;100.00;95676.83;647463;216;31510;-74
2022/07/15 04:08:16;;;;;;;1.10;0.80;;;14.10;1.40;;;15.44;100.00;95678.57;645074;216;31518;-74
2022/07/15 04:10:58;;;;;;;1.20;0.80;;;14.10;1.40;;;15.53;100.00;95680.27;646937;216;31483;-73
2022/07/15 04:13:39;;;;;;;5.25;1.15;;;14.20;1.40;;;15.62;100.00;95685.07;647497;216;31531;-74
2022/07/15 04:18:56;;;;;;;3.70;1.00;;;14.40;1.40;;;15.78;100.00;95690.97;619580;225;32408;-74
2022/07/15 04:21:40;;;;;;;0.77;0.77;;;14.50;1.40;;;15.85;100.00;95689.84;647026;216;32066;-74
2022/07/15 04:24:22;;;;;;;0.70;0.70;;;14.50;1.40;;;15.92;100.00;95689.46;646127;212;31491;-73
2022/07/15 04:27:04;;;;;;;1.40;1.00;;;14.50;1.40;;;15.98;100.00;95689.72;646752;212;31560;-74
2022/07/15 04:29:45;;;;;;;1.00;1.00;;;14.50;1.40;;;16.06;100.00;95686.94;646944;216;31537;-74
2022/07/15 04:32:27;;;;;;;1.50;1.40;;;14.60;1.40;;;16.03;100.00;95687.39;645441;216;31501;-74
2022/07/15 04:35:51;;;;;;;1.35;1.08;;;14.60;1.40;;;15.98;100.00;95685.03;647693;216;31534;-73
2022/07/15 04:38:33;;;;;;;2.90;1.00;;;14.60;1.40;;;16.01;100.00;95687.07;646215;216;31523;-74
2022/07/15 04:41:14;;;;;;;3.10;0.80;;;14.50;1.40;;;15.97;100.00;95681.98;647308;216;31472;-73
2022/07/15 04:43:56;;;;;;;0.98;0.88;;;14.40;1.40;;;15.99;100.00;95682.66;646681;216;31515;-74
2022/07/15 04:46:38;;;;;;;1.05;0.95;;;14.40;1.40;;;15.87;100.00;95680.52;646380;212;32123;-73
2022/07/15 04:52:09;;;;;;;6.00;1.30;;;14.30;1.40;;;15.95;100.00;95682.64;647165;216;31518;-73
2022/07/15 04:54:51;;;;;;;1.55;0.90;;;14.40;1.40;;;16.09;100.00;95678.70;647007;212;31543;-73
2022/07/15 04:57:33;;;;;;;1.20;1.10;;;14.50;1.40;;;16.27;100.00;95682.34;644859;216;31470;-73
2022/07/15 05:00:15;;;;;;;1.50;1.40;;;14.60;1.40;;;16.63;100.00;95685.31;618855;222;32405;-76
2022/07/15 05:02:58;;;;;;;1.12;1.00;;;14.90;1.40;;;16.79;100.00;95687.16;619067;226;32048;-77
2022/07/15 05:05:46;;;;;;;1.27;1.05;;;15.20;1.40;;;16.84;100.00;95691.04;647539;216;31706;-74
2022/07/15 05:08:28;;;;;;;2.70;1.00;;;15.20;1.40;;;17.01;100.00;95691.75;646234;216;31475;-73
2022/07/15 05:13:44;;;;;;;1.50;1.40;;;15.50;1.40;;;17.46;100.00;95692.00;619308;222;31871;-73
2022/07/15 05:16:27;;;;;;;1.48;1.12;;;15.60;1.40;;;17.27;100.00;95694.75;647010;212;31550;-73
2022/07/15 05:19:09;;;;;;;1.80;1.30;;;15.50;1.40;;;17.26;100.00;95697.55;645349;216;31505;-73
2022/07/15 05:21:51;;;;;;;2.70;1.10;;;15.50;1.40;;;17.20;100.00;95702.49;647088;216;31513;-73
2022/07/15 05:24:32;;;;;;;3.97;1.20;;;15.50;1.40;;;17.31;100.00;95699.27;645767;216;31522;-74
2022/07/15 05:27:14;;;;;;;1.15;1.00;;;15.50;1.40;;;17.29;100.00;95705.75;647896;216;31615;-74
2022/07/15 05:29:59;;;;;;;1.40;1.30;;;15.50;1.40;;;17.29;100.00;95712.98;646913;216;31590;-73
2022/07/15 05:32:41;;;;;;;2.60;1.10;;;15.50;1.40;;;17.35;100.00;95715.13;646489;216;31562;-73
2022/07/15 05:35:51;;;;;;;1.85;1.50;;;15.70;1.40;;;17.83;100.00;95719.42;645666;212;31592;-73
2022/07/15 05:38:36;;;;;;;1.50;1.15;;;16.00;1.40;;;17.81;100.00;95719.94;646479;212;31531;-73
2022/07/15 05:41:17;;;;;;;1.70;1.58;;;16.10;1.40;;;17.87;100.00;95722.73;618954;225;31933;-74
2022/07/15 05:43:59;;;;;;;1.80;1.20;;;16.20;1.40;;;17.90;100.00;95725.84;646210;216;31520;-74
2022/07/15 05:46:41;;;;;;;1.55;1.10;;;16.10;1.40;;;18.02;100.00;95732.64;646799;216;31529;-73
2022/07/15 05:49:26;;;;;;;1.60;1.10;;;16.20;1.40;;;17.82;100.00;95732.05;618770;225;42686;-74
2022/07/15 05:52:08;;;;;;;1.70;1.23;;;16.20;1.40;;;17.87;100.00;95733.47;647281;216;31511;-73
2022/07/15 05:54:50;;;;;;;1.60;1.40;;;16.20;1.40;;;18.03;100.00;95732.61;646917;212;31517;-73
2022/07/15 05:57:35;;;;;;;1.58;1.17;;;16.30;1.40;;;17.78;100.00;95735.59;619561;222;31864;-73
2022/07/15 06:00:16;;;;;;;1.92;1.20;;;16.20;1.40;;;17.78;100.00;95738.67;647051;212;31507;-74
2022/07/15 06:03:06;;;;;;;5.43;1.77;;;16.10;1.40;;;17.73;100.00;95742.22;623299;225;31820;-73
2022/07/15 06:05:48;;;;;;;1.30;1.20;;;16.10;1.40;;;17.75;100.00;95746.22;645695;216;32079;-73
2022/07/15 06:08:30;;;;;;;2.07;1.10;;;16.10;1.40;;;17.83;100.00;95740.66;618887;225;32408;-73
2022/07/15 06:11:12;;;;;;;3.47;1.62;;;16.20;1.40;;;18.00;100.00;95746.09;647513;212;31865;-73
2022/07/15 06:13:56;;;;;;;1.90;1.35;;;16.20;1.40;;;18.06;100.00;95747.07;646418;213;31548;-73
2022/07/15 06:16:38;;;;;;;1.70;1.40;;;16.20;1.40;;;17.97;100.00;95741.42;620496;222;31864;-73
2022/07/15 06:19:23;;;;;;;1.23;1.12;;;16.40;1.40;;;18.01;100.00;95743.42;632163;217;32367;-74
2022/07/15 06:22:08;;;;;;;1.50;1.00;;;16.40;1.40;;;18.03;100.00;95751.66;645213;216;34528;-74
2022/07/15 06:24:50;;;;;;;2.08;1.08;;;16.50;1.40;;;18.19;100.00;95749.05;619505;226;31810;-74
2022/07/15 06:27:37;;;;;;;1.40;1.20;;;16.60;1.40;;;18.39;100.00;95747.70;647123;216;31559;-75
2022/07/15 06:30:25;;;;;;;1.50;1.10;;;17.00;1.40;;;18.56;100.00;95748.11;647753;216;43569;-74
2022/07/15 06:35:51;;;;;;;4.78;1.10;;;17.90;1.40;;;18.88;100.00;95752.69;646326;216;31549;-74
2022/07/15 06:38:33;;;;;;;1.00;0.90;;;17.70;1.40;;;18.62;100.00;95753.08;645901;216;42377;-74
2022/07/15 06:41:15;;;;;;;1.70;1.40;;;17.60;1.40;;;19.09;100.00;95757.70;646771;216;31508;-75
2022/07/15 06:44:04;;;;;;;0.85;0.82;;;17.90;1.40;;;19.48;100.00;95754.86;645838;212;31484;-75
2022/07/15 06:46:50;;;;;;;2.80;1.40;;;18.00;1.40;;;19.88;100.00;95751.73;647372;216;31541;-74
2022/07/15 06:49:32;;;;;;;1.23;0.90;;;18.20;1.40;;;19.60;100.00;95757.29;646397;216;31474;-74
2022/07/15 06:52:13;;;;;;;1.80;1.70;;;18.20;1.40;;;19.72;100.00;95754.82;645241;216;31548;-73
2022/07/15 06:55:01;;;;;;;1.40;1.20;;;18.20;1.40;;;20.15;100.00;95759.23;645388;216;31589;-74
2022/07/15 06:57:49;;;;;;;3.62;1.10;;;18.30;1.40;;;20.01;100.00;95756.23;646777;216;32265;-74
2022/07/15 07:00:36;;;;;;;1.60;1.30;;;18.30;1.40;;;20.36;100.00;95751.43;645425;216;42186;-76
2022/07/15 07:03:20;;;;;;;1.98;1.27;;;18.20;1.40;;;20.38;100.00;95749.11;646972;216;31583;-75
2022/07/15 07:06:02;;;;;;;2.03;1.35;;;18.10;1.40;;;20.42;100.00;95754.47;646421;212;31522;-73
2022/07/15 07:08:46;;;;;;;3.03;1.25;;;18.30;1.40;;;20.37;100.00;95754.27;645404;216;42115;-73
2022/07/15 07:11:25;;;;;;;1.50;1.17;;;18.60;1.40;;;20.47;100.00;95759.16;647137;216;42147;-73
2022/07/15 07:14:07;;;;;;;2.00;1.40;;;18.70;1.40;;;20.46;100.00;95756.27;647357;216;31499;-74
2022/07/15 07:16:55;;;;;;;2.97;1.10;;;18.80;1.40;;;20.56;100.00;95765.25;646467;212;42804;-76
2022/07/15 07:19:43;;;;;;;2.95;1.40;;;19.00;1.40;;;20.41;96.28;95764.71;643726;216;31734;-74
2022/07/15 07:22:26;;;;;;;2.92;1.52;;;19.10;1.40;;;20.46;94.80;95763.08;647278;212;31961;-76
2022/07/15 07:25:08;;;;;;;2.10;1.00;;;19.10;1.40;;;20.60;96.68;95768.02;646372;216;32195;-76
2022/07/15 07:27:56;;;;;;;3.00;1.30;;;19.00;1.40;;;20.73;92.70;95767.27;646972;216;31637;-74
2022/07/15 07:30:38;;;;;;;1.90;1.12;;;19.30;1.40;;;20.36;93.22;95769.81;646219;212;31540;-74
2022/07/15 07:35:51;;;;;;;1.53;1.30;;;19.30;1.40;;;21.16;95.56;95771.77;618963;225;32166;-73
2022/07/15 07:38:33;;;;;;;1.40;1.30;;;19.60;1.40;;;21.26;93.68;95768.42;647459;216;31748;-74
2022/07/15 07:41:15;;;;;;;2.30;1.15;;;19.80;1.40;;;21.26;89.31;95767.89;630948;222;31814;-74
2022/07/15 07:43:57;;;;;;;1.35;1.02;;;19.70;1.40;;;21.23;91.31;95766.05;646793;212;31478;-74
2022/07/15 07:46:41;;;;;;;1.50;1.30;;;19.80;1.40;;;21.39;88.15;95762.52;619044;226;32228;-74
2022/07/15 07:49:23;;;;;;;1.80;0.80;;;20.10;1.40;;;21.67;91.76;95757.29;646859;216;31568;-73
2022/07/15 07:52:05;;;;;;;1.65;1.00;;;20.40;1.40;;;21.77;85.89;95760.32;645733;216;31735;-74
2022/07/15 07:54:47;;;;;;;2.12;1.00;;;20.50;1.40;;;21.96;88.51;95753.08;646221;216;31891;-74
2022/07/15 07:57:32;;;;;;;2.37;1.17;;;20.40;1.40;;;21.75;81.50;95751.89;646717;212;31618;-73
2022/07/15 08:00:14;;;;;;;3.83;1.50;;;20.50;1.40;;;21.97;86.28;95754.23;618305;226;32134;-74
2022/07/15 08:02:56;;;;;;;1.92;1.00;;;20.60;1.40;;;22.22;86.28;95748.33;646169;216;31583;-74
2022/07/15 08:05:38;;;;;;;2.13;1.53;;;20.60;1.40;;;21.75;82.67;95750.41;646434;212;32440;-74
2022/07/15 08:08:24;;;;;;;1.30;0.90;;;20.60;1.40;;;22.10;85.41;95747.03;632238;221;31736;-74
2022/07/15 08:11:05;;;;;;;3.90;1.30;;;20.80;1.40;;;22.24;82.96;95745.33;644990;212;31644;-74
2022/07/15 08:13:47;;;;;;;1.10;1.00;;;20.70;1.40;;;22.25;82.33;95747.47;646896;216;31690;-74
2022/07/15 08:16:29;;;;;;;1.10;1.00;;;20.60;1.40;;;21.88;81.74;95746.20;648252;216;31532;-74
2022/07/15 08:19:15;;;;;;;3.03;1.30;;;20.60;1.40;;;22.22;80.52;95741.28;646401;216;31524;-73
2022/07/15 08:21:52;;;;;;;4.03;1.50;;;20.70;1.40;;;22.26;80.28;95734.08;646582;216;31654;-73
2022/07/15 08:24:37;;;;;;;1.90;0.93;;;20.80;1.40;;;22.57;82.68;95734.04;646856;216;32170;-73
2022/07/15 08:27:18;;;;;;;2.50;1.30;;;21.30;1.40;;;22.22;79.94;95733.83;646301;216;31634;-73
2022/07/15 08:30:00;;;;;;;1.80;1.50;;;21.20;1.40;;;22.64;83.25;95742.22;646128;216;31611;-74
2022/07/15 08:32:42;;;;;;;1.30;1.20;;;21.50;1.40;;;22.75;75.89;95741.67;647656;216;32134;-74
2022/07/15 08:35:51;;;;;;;2.00;1.50;;;21.10;1.40;;;22.55;77.62;95740.41;646550;212;31660;-73
2022/07/15 08:38:33;;;;;;;2.30;1.20;;;21.00;1.40;;;22.95;81.64;95737.18;621566;226;32384;-73
2022/07/15 08:41:16;;;;;;;1.20;1.10;;;21.60;1.40;;;23.26;76.76;95735.33;646114;216;31693;-74
2022/07/15 08:43:57;;;;;;;1.40;1.20;;;21.70;1.40;;;23.55;78.22;95732.59;646930;216;32074;-73
2022/07/15 08:46:39;;;;;;;3.78;1.10;;;22.10;1.40;;;23.24;75.75;95739.14;647150;212;31535;-73
2022/07/15 08:49:22;;;;;;;2.87;1.37;;;22.00;1.40;;;22.87;73.75;95735.02;646884;216;31531;-73
2022/07/15 08:52:03;;;;;;;1.50;1.40;;;21.60;1.40;;;23.28;75.61;95738.83;645362;215;31532;-73
2022/07/15 08:54:44;;;;;;;2.35;1.33;;;22.00;1.40;;;23.76;73.13;95734.21;647529;216;31521;-73
2022/07/15 08:57:26;;;;;;;2.30;1.40;;;22.30;1.40;;;23.89;72.67;95731.58;646414;216;31485;-74
2022/07/15 09:00:10;;;;;;;2.17;1.60;;;22.10;1.40;;;23.52;68.72;95727.98;646389;216;32239;-73
2022/07/15 09:02:50;;;;;;;2.03;1.35;;;21.80;1.40;;;22.97;69.74;95726.25;647202;216;31679;-73
2022/07/15 09:05:38;;;;;;;2.90;1.20;;;21.50;1.40;;;23.63;73.67;95726.38;619706;222;31847;-76
2022/07/15 09:08:25;;;;;;;1.80;1.27;;;22.40;1.40;;;24.13;73.80;95730.05;646780;216;31493;-74
2022/07/15 09:11:10;;;;;;;3.47;1.50;;;22.90;1.40;;;24.50;69.77;95719.48;646499;216;33307;-73
2022/07/15 09:13:52;;;;;;;4.05;1.33;;;23.00;1.40;;;24.47;74.94;95721.73;646013;216;32074;-73
2022/07/15 09:16:33;;;;;;;2.40;1.10;;;23.30;1.40;;;25.18;72.82;95722.33;646221;212;32651;-73
2022/07/15 09:19:17;;;;;;;2.72;1.45;;;23.90;1.40;;;25.38;68.06;95724.34;647108;216;31782;-73
2022/07/15 09:22:04;;;;;;;3.20;1.30;;;24.10;1.40;;;25.71;63.94;95719.03;645129;216;42189;-73
2022/07/15 09:24:45;;;;;;;2.40;1.27;;;24.10;1.40;;;25.74;63.32;95724.34;647327;212;31537;-73
2022/07/15 09:27:28;;;;;;;2.10;1.15;;;24.00;1.40;;;25.51;60.60;95725.78;647961;215;31603;-74
2022/07/15 09:39:01;;;;;;;3.20;1.60;;;28.90;1.40;;;29.53;55.36;95714.09;646182;216;31591;-74
2022/07/15 09:41:42;;;;;;;1.45;1.30;;;29.60;1.40;;;30.49;53.09;95708.89;646500;216;31536;-73
2022/07/15 09:44:25;;;;;;;1.35;1.25;;;30.10;1.40;;;31.65;53.83;95711.98;646105;216;31555;-74
2022/07/15 09:47:06;;;;;;;5.65;1.50;;;31.10;1.40;;;31.82;48.81;95714.39;647158;216;31720;-74
2022/07/15 09:49:48;;;;;;;2.20;1.50;;;30.40;1.40;;;31.76;48.36;95710.67;646597;216;31679;-74
2022/07/15 09:52:29;;;;;;;2.20;1.60;;;30.80;1.40;;;32.81;47.02;95713.08;644797;216;31748;-73
2022/07/15 09:55:11;;;;;;;1.60;1.50;;;30.70;1.40;;;33.97;43.46;95703.05;645946;212;31559;-74
2022/07/15 09:57:53;;;;;;;4.93;1.73;;;30.70;1.40;;;34.21;46.26;95701.59;647138;216;31624;-72
2022/07/15 10:00:38;;;;;;;4.72;1.87;;;31.10;1.40;;;33.42;42.32;95704.98;646232;212;32297;-73
2022/07/15 10:03:22;;;;;;;1.80;1.50;;;30.00;1.40;;;34.27;42.72;95698.73;646639;216;31723;-72
2022/07/15 10:06:02;;;;;;;1.70;1.60;;;30.80;1.40;;;33.37;42.44;95702.66;647740;216;31534;-73
2022/07/15 10:08:43;;;;;;;1.80;1.65;;;30.20;1.40;;;34.45;41.16;95695.11;647068;216;31689;-72
2022/07/15 10:11:27;;;;;;;2.80;1.40;;;30.40;1.40;;;34.46;38.19;95692.41;647053;216;31582;-73
2022/07/15 10:14:38;;;;;;;1.60;1.43;;;30.40;1.40;;;33.56;40.45;95700.91;647103;216;31926;-73
2022/07/15 10:17:41;;;;;;;4.18;1.90;;;30.30;1.40;;;34.15;37.26;95696.09;645076;215;31707;-74
2022/07/15 10:20:51;;;;;;;1.62;1.52;;;30.30;1.40;;;35.72;39.53;95695.31;646332;216;31567;-72
2022/07/15 10:26:24;;;;;;;2.87;1.60;;;32.50;1.40;;;33.24;37.63;95699.84;647734;212;31598;-75
2022/07/15 10:29:11;;;;;;;1.65;1.25;;;27.70;1.40;;;32.02;41.89;95701.80;646633;216;32190;-76
2022/07/15 10:31:58;;;;;;;2.20;2.00;;;26.70;1.40;;;29.67;43.90;95704.45;645619;216;31564;-76
2022/07/15 10:35:57;;;;;;;3.53;1.62;;;25.70;1.40;;;30.47;44.38;95697.99;648221;216;32300;-75
2022/07/15 10:38:38;;;;;;;3.00;1.75;;;26.40;1.40;;;30.91;44.61;95694.56;647073;212;31633;-76
2022/07/15 10:41:22;;;;;;;2.55;1.60;;;26.70;1.40;;;31.27;43.89;95699.38;646480;216;31526;-75
2022/07/15 10:44:11;;;;;;;3.45;2.20;;;27.30;1.40;;;30.33;43.45;95694.43;601560;233;32417;-75
2022/07/15 10:47:21;;;;;;;3.83;1.70;;;26.90;1.40;;;30.46;44.75;95699.75;645661;212;31551;-76
2022/07/15 10:50:20;;;;;;;1.42;1.20;;;26.90;1.40;;;30.47;43.00;95698.19;645902;212;31519;-77
2022/07/15 10:53:17;;;;;;;2.15;1.50;;;27.20;1.40;;;30.42;44.89;95698.23;645926;216;42335;-76
2022/07/15 10:55:58;;;;;;;1.42;1.27;;;27.40;1.40;;;31.10;43.02;95698.83;646001;216;32188;-74
2022/07/15 10:58:41;;;;;;;2.80;1.80;;;27.90;1.40;;;30.73;43.63;95694.98;646144;216;32195;-75
2022/07/15 11:01:32;;;;;;;2.75;1.42;;;27.60;1.40;;;30.74;44.64;95690.31;645260;216;42357;-76
2022/07/15 11:04:20;;;;;;;2.17;1.42;;;27.50;1.40;;;30.81;43.89;95687.98;647617;216;31524;-75
2022/07/15 11:07:19;;;;;;;1.60;1.40;;;27.40;1.40;;;30.17;43.81;95691.28;646416;216;31676;-75
2022/07/15 11:10:18;;;;;;;1.95;1.60;;;26.20;1.40;;;29.22;44.42;95691.16;618800;226;31917;-76
2022/07/15 11:12:59;;;;;;;2.55;1.40;;;26.60;1.40;;;29.02;45.64;95687.16;642928;217;31696;-75
2022/07/15 11:15:51;;;;;;;2.20;1.90;;;26.80;1.40;;;29.38;44.16;95681.86;646844;216;42190;-75
2022/07/15 11:18:29;;;;;;;6.62;1.90;;;27.10;1.40;;;30.10;48.82;95677.84;645256;216;31718;-76
2022/07/15 11:21:12;;;;;;;3.00;1.42;;;27.70;1.40;;;31.17;42.67;95676.22;646684;216;42309;-77
2022/07/15 11:24:00;;;;;;;4.18;1.98;;;28.30;1.40;;;29.96;44.63;95674.77;646830;212;31597;-76
2022/07/15 11:26:48;;;;;;;1.70;1.55;;;27.40;1.40;;;30.03;45.28;95668.07;646753;212;31561;-76
2022/07/15 11:29:43;;;;;;;1.50;1.40;;;27.30;1.40;;;31.94;43.80;95663.14;646733;216;31575;-76
2022/07/15 11:32:24;;;;;;;5.00;1.60;;;28.80;1.40;;;32.12;42.18;95656.95;646093;216;31525;-76
2022/07/15 11:35:54;;;;;;;1.60;1.50;;;29.00;1.40;;;31.85;43.07;95655.14;646519;216;31573;-78
2022/07/15 11:38:38;;;;;;;4.12;1.70;;;27.50;1.40;;;30.63;43.21;95655.22;619792;222;31847;-76
2022/07/15 11:47:00;;;;;;;2.80;1.52;;;27.00;1.40;;;29.95;43.74;95645.69;646068;212;31652;-76
2022/07/15 11:49:48;;;;;;;2.03;1.60;;;25.80;1.40;;;28.40;43.90;95649.09;646095;216;31491;-78
2022/07/15 11:52:31;;;;;;;1.70;1.60;;;25.10;1.40;;;27.72;46.77;95653.64;645864;212;31553;-75
2022/07/15 11:55:19;;;;;;;3.35;1.52;;;26.00;1.40;;;30.17;44.37;95645.09;647296;216;32013;-76
2022/07/15 11:58:07;;;;;;;1.95;1.20;;;29.10;1.40;;;32.67;39.39;95639.48;646806;212;31537;-72
2022/07/15 12:00:49;;;;;;;1.60;1.40;;;29.70;1.40;;;32.72;38.22;95630.12;646097;212;34116;-74
2022/07/15 12:03:39;;;;;;;2.60;1.30;;;29.20;1.40;;;34.86;37.11;95628.05;647566;216;31606;-78
2022/07/15 12:06:26;;;;;;;4.65;1.83;;;29.90;1.40;;;36.53;35.28;95623.70;646943;215;31706;-74
2022/07/15 12:09:08;;;;;;;2.50;2.15;;;30.40;1.40;;;35.73;34.15;95621.83;646191;212;31612;-75
2022/07/15 12:11:50;;;;;;;1.70;1.60;;;29.90;1.40;;;36.09;34.68;95615.89;646788;216;31566;-74